aviador You're here:

VTPH Decoded Metar

PRACHUAP KHIRI KHAN in THAILAND
Report Time2017-10-23 05:00:00
UTC Time2017-10-23 06:04:12
Flight Rules vfr VFR
Wind070° at 07 kt
W.Decomp.*RWY 16: 7 kt LCW
W.Rank070° ranks 17
Current wind is above 070° avg. (5.6)
Visibility9999 m
Phenomena:N/A
Clouds:N/A
Expected CloudBase > 3,200 ft AGL from Temp-Dew spread
CeilingNone
Temp32°C (ISA +17)
Dew Point24°C (63% RH)
Heat Index38.0°C
QNH1010 hPa
Density Alt2,457 ft
Elevation20 ft
Report Wrong Elevation
Raw Report
VTPH 230500Z 07007KT 030V110 CAVOK 32/24 Q1010 NOSIG=

Extra information for VTPH:More info

Metar Taf Metar & Taf Last 4 Metars F.Rules Stats Wind Profile Meteogram Temp Stats Airport Information Weather charts Add Link Nearby VenuesMetar ALERT Operation Metar Decoded Social comments